sensor_id;sensor_type;location;lat;lon;timestamp;pressure;altitude;pressure_sealevel;temperature;humidity
9764;BME280;4921;43.214;27.936;2022-11-15T00:02:08;101881.25;;;11.19;100.00
9764;BME280;4921;43.214;27.936;2022-11-15T00:04:35;101879.28;;;11.22;100.00
9764;BME280;4921;43.214;27.936;2022-11-15T00:07:03;101876.00;;;11.19;100.00
9764;BME280;4921;43.214;27.936;2022-11-15T00:09:30;101876.19;;;11.16;100.00
9764;BME280;4921;43.214;27.936;2022-11-15T00:11:57;101881.25;;;11.19;100.00
9764;BME280;4921;43.214;27.936;2022-11-15T00:14:24;101878.69;;;11.17;100.00
9764;BME280;4921;43.214;27.936;2022-11-15T00:16:51;101878.13;;;11.26;100.00
9764;BME280;4921;43.214;27.936;2022-11-15T00:19:18;101874.00;;;11.22;100.00
9764;BME280;4921;43.214;27.936;2022-11-15T00:21:44;101862.22;;;11.28;100.00
9764;BME280;4921;43.214;27.936;2022-11-15T00:24:13;101869.38;;;11.26;100.00
9764;BME280;4921;43.214;27.936;2022-11-15T00:26:40;101883.97;;;11.17;100.00
9764;BME280;4921;43.214;27.936;2022-11-15T00:29:07;101872.03;;;11.26;100.00
9764;BME280;4921;43.214;27.936;2022-11-15T00:31:33;101869.09;;;11.30;100.00
9764;BME280;4921;43.214;27.936;2022-11-15T00:34:00;101868.63;;;11.24;100.00
9764;BME280;4921;43.214;27.936;2022-11-15T00:36:27;101872.88;;;11.26;100.00
9764;BME280;4921;43.214;27.936;2022-11-15T00:38:54;101861.13;;;11.18;100.00
9764;BME280;4921;43.214;27.936;2022-11-15T00:41:22;101854.66;;;11.23;100.00
9764;BME280;4921;43.214;27.936;2022-11-15T00:43:49;101853.13;;;11.19;100.00
9764;BME280;4921;43.214;27.936;2022-11-15T00:46:16;101855.59;;;11.08;100.00
9764;BME280;4921;43.214;27.936;2022-11-15T00:48:43;101853.44;;;11.15;100.00
9764;BME280;4921;43.214;27.936;2022-11-15T00:51:10;101862.38;;;11.12;100.00
9764;BME280;4921;43.214;27.936;2022-11-15T00:53:36;101858.88;;;11.12;100.00
9764;BME280;4921;43.214;27.936;2022-11-15T00:56:04;101864.41;;;11.21;100.00
9764;BME280;4921;43.214;27.936;2022-11-15T00:58:32;101851.34;;;11.20;100.00
9764;BME280;4921;43.214;27.936;2022-11-15T01:01:06;101846.28;;;11.17;100.00
9764;BME280;4921;43.214;27.936;2022-11-15T01:03:34;101848.72;;;11.20;100.00
9764;BME280;4921;43.214;27.936;2022-11-15T01:06:01;101846.75;;;11.23;100.00
9764;BME280;4921;43.214;27.936;2022-11-15T01:08:27;101842.50;;;11.21;100.00
9764;BME280;4921;43.214;27.936;2022-11-15T01:10:54;101846.28;;;11.17;100.00
9764;BME280;4921;43.214;27.936;2022-11-15T01:13:26;101845.44;;;11.16;100.00
9764;BME280;4921;43.214;27.936;2022-11-15T01:15:57;101832.16;;;11.18;100.00
9764;BME280;4921;43.214;27.936;2022-11-15T01:18:24;101840.91;;;11.18;100.00
9764;BME280;4921;43.214;27.936;2022-11-15T01:20:51;101837.94;;;11.10;100.00
9764;BME280;4921;43.214;27.936;2022-11-15T01:23:17;101846.16;;;11.04;100.00
9764;BME280;4921;43.214;27.936;2022-11-15T01:25:44;101850.03;;;11.13;100.00
9764;BME280;4921;43.214;27.936;2022-11-15T01:28:11;101850.97;;;11.12;100.00
9764;BME280;4921;43.214;27.936;2022-11-15T01:30:38;101843.66;;;11.17;100.00
9764;BME280;4921;43.214;27.936;2022-11-15T01:33:07;101841.84;;;11.17;100.00
9764;BME280;4921;43.214;27.936;2022-11-15T01:35:38;101833.22;;;11.01;100.00
9764;BME280;4921;43.214;27.936;2022-11-15T01:38:05;101842.50;;;11.07;100.00
9764;BME280;4921;43.214;27.936;2022-11-15T01:40:31;101843.38;;;11.07;100.00
9764;BME280;4921;43.214;27.936;2022-11-15T01:42:58;101841.19;;;11.14;100.00
9764;BME280;4921;43.214;27.936;2022-11-15T01:45:26;101837.06;;;11.10;100.00
9764;BME280;4921;43.214;27.936;2022-11-15T01:47:53;101834.25;;;10.99;100.00
9764;BME280;4921;43.214;27.936;2022-11-15T01:50:26;101835.09;;;10.99;100.00
9764;BME280;4921;43.214;27.936;2022-11-15T01:52:55;101833.22;;;11.01;100.00
9764;BME280;4921;43.214;27.936;2022-11-15T01:55:25;101826.72;;;11.07;100.00
9764;BME280;4921;43.214;27.936;2022-11-15T01:57:55;101830.09;;;11.09;100.00
9764;BME280;4921;43.214;27.936;2022-11-15T02:00:23;101833.88;;;11.05;100.00
9764;BME280;4921;43.214;27.936;2022-11-15T02:02:50;101824.66;;;11.12;100.00
9764;BME280;4921;43.214;27.936;2022-11-15T02:05:17;101819.56;;;11.09;100.00
9764;BME280;4921;43.214;27.936;2022-11-15T02:07:45;101817.59;;;11.12;100.00
9764;BME280;4921;43.214;27.936;2022-11-15T02:10:17;101816.28;;;11.05;100.00
9764;BME280;4921;43.214;27.936;2022-11-15T02:12:44;101819.84;;;11.04;100.00
9764;BME280;4921;43.214;27.936;2022-11-15T02:15:12;101817.34;;;10.89;100.00
9764;BME280;4921;43.214;27.936;2022-11-15T02:18:02;101814.91;;;10.86;100.00
9764;BME280;4921;43.214;27.936;2022-11-15T02:20:53;101819.97;;;11.03;100.00
9764;BME280;4921;43.214;27.936;2022-11-15T02:29:30;101812.69;;;11.06;100.00
9764;BME280;4921;43.214;27.936;2022-11-15T02:32:09;101811.31;;;11.01;100.00
9764;BME280;4921;43.214;27.936;2022-11-15T02:34:45;101805.69;;;10.93;100.00
9764;BME280;4921;43.214;27.936;2022-11-15T02:37:23;101813.75;;;11.04;100.00
9764;BME280;4921;43.214;27.936;2022-11-15T02:40:02;101806.78;;;11.03;100.00
9764;BME280;4921;43.214;27.936;2022-11-15T02:42:36;101805.13;;;11.02;100.00
9764;BME280;4921;43.214;27.936;2022-11-15T02:45:26;101811.13;;;11.04;100.00
9764;BME280;4921;43.214;27.936;2022-11-15T02:47:57;101801.16;;;11.09;100.00
9764;BME280;4921;43.214;27.936;2022-11-15T02:50:28;101809.16;;;11.07;100.00
9764;BME280;4921;43.214;27.936;2022-11-15T02:52:56;101792.78;;;11.02;100.00
9764;BME280;4921;43.214;27.936;2022-11-15T02:55:29;101793.75;;;11.01;100.00
9764;BME280;4921;43.214;27.936;2022-11-15T02:58:10;101788.88;;;10.95;100.00
9764;BME280;4921;43.214;27.936;2022-11-15T03:00:45;101795.72;;;10.84;100.00
9764;BME280;4921;43.214;27.936;2022-11-15T03:03:32;101785.56;;;10.92;100.00
9764;BME280;4921;43.214;27.936;2022-11-15T03:06:10;101781.03;;;10.94;100.00
9764;BME280;4921;43.214;27.936;2022-11-15T03:08:47;101786.41;;;10.92;100.00
9764;BME280;4921;43.214;27.936;2022-11-15T03:11:20;101796.66;;;10.97;100.00
9764;BME280;4921;43.214;27.936;2022-11-15T03:13:54;101787.06;;;10.96;100.00
9764;BME280;4921;43.214;27.936;2022-11-15T03:16:29;101786.69;;;10.88;100.00
9764;BME280;4921;43.214;27.936;2022-11-15T03:19:05;101788.09;;;10.79;100.00
9764;BME280;4921;43.214;27.936;2022-11-15T03:21:34;101783.97;;;10.89;100.00
9764;BME280;4921;43.214;27.936;2022-11-15T03:24:04;101782.94;;;11.06;100.00
9764;BME280;4921;43.214;27.936;2022-11-15T03:26:33;101776.81;;;11.05;100.00
9764;BME280;4921;43.214;27.936;2022-11-15T03:29:04;101780.00;;;10.96;100.00
9764;BME280;4921;43.214;27.936;2022-11-15T03:31:35;101778.22;;;10.97;100.00
9764;BME280;4921;43.214;27.936;2022-11-15T03:34:21;101767.41;;;11.01;100.00
9764;BME280;4921;43.214;27.936;2022-11-15T03:36:51;101770.59;;;11.06;100.00
9764;BME280;4921;43.214;27.936;2022-11-15T03:39:19;101760.72;;;11.10;100.00
9764;BME280;4921;43.214;27.936;2022-11-15T03:41:49;101757.88;;;11.13;100.00
9764;BME280;4921;43.214;27.936;2022-11-15T03:44:25;101758.94;;;11.10;100.00
9764;BME280;4921;43.214;27.936;2022-11-15T03:47:00;101757.06;;;10.98;100.00
9764;BME280;4921;43.214;27.936;2022-11-15T03:49:32;101760.66;;;10.97;100.00
9764;BME280;4921;43.214;27.936;2022-11-15T03:52:01;101755.75;;;10.91;100.00
9764;BME280;4921;43.214;27.936;2022-11-15T03:54:29;101754.53;;;10.97;100.00
9764;BME280;4921;43.214;27.936;2022-11-15T03:56:56;101743.28;;;10.95;100.00
9764;BME280;4921;43.214;27.936;2022-11-15T03:59:23;101750.22;;;10.96;100.00
9764;BME280;4921;43.214;27.936;2022-11-15T04:01:50;101743.09;;;10.84;100.00
9764;BME280;4921;43.214;27.936;2022-11-15T04:04:16;101741.31;;;10.84;100.00
9764;BME280;4921;43.214;27.936;2022-11-15T04:06:45;101744.34;;;10.78;100.00
9764;BME280;4921;43.214;27.936;2022-11-15T04:09:11;101738.47;;;10.87;100.00
9764;BME280;4921;43.214;27.936;2022-11-15T04:11:38;101747.75;;;11.07;100.00
9764;BME280;4921;43.214;27.936;2022-11-15T04:14:05;101746.47;;;11.00;100.00
9764;BME280;4921;43.214;27.936;2022-11-15T04:16:32;101746.66;;;10.97;100.00
9764;BME280;4921;43.214;27.936;2022-11-15T04:18:59;101745.06;;;10.94;100.00
9764;BME280;4921;43.214;27.936;2022-11-15T04:21:45;101743.28;;;10.95;100.00
9764;BME280;4921;43.214;27.936;2022-11-15T04:24:29;101742.34;;;10.82;100.00
9764;BME280;4921;43.214;27.936;2022-11-15T04:26:56;101748.47;;;10.82;100.00
9764;BME280;4921;43.214;27.936;2022-11-15T04:29:23;101741.50;;;10.81;100.00
9764;BME280;4921;43.214;27.936;2022-11-15T04:32:03;101739.44;;;10.86;100.00
9764;BME280;4921;43.214;27.936;2022-11-15T04:34:30;101734.06;;;10.88;100.00
9764;BME280;4921;43.214;27.936;2022-11-15T04:36:59;101735.28;;;10.96;100.00
9764;BME280;4921;43.214;27.936;2022-11-15T04:39:42;101736.88;;;10.99;100.00
9764;BME280;4921;43.214;27.936;2022-11-15T04:42:09;101741.50;;;10.95;100.00
9764;BME280;4921;43.214;27.936;2022-11-15T04:44:36;101728.69;;;10.89;100.00
9764;BME280;4921;43.214;27.936;2022-11-15T04:47:03;101743.84;;;10.86;100.00
9764;BME280;4921;43.214;27.936;2022-11-15T04:49:31;101735.84;;;10.87;100.00
9764;BME280;4921;43.214;27.936;2022-11-15T04:51:59;101722.97;;;10.83;100.00
9764;BME280;4921;43.214;27.936;2022-11-15T04:54:26;101730.50;;;10.89;100.00
9764;BME280;4921;43.214;27.936;2022-11-15T04:56:53;101743.66;;;10.89;100.00
9764;BME280;4921;43.214;27.936;2022-11-15T04:59:20;101739.91;;;10.93;100.00
9764;BME280;4921;43.214;27.936;2022-11-15T05:01:47;101739.16;;;10.91;100.00
9764;BME280;4921;43.214;27.936;2022-11-15T05:04:14;101735.78;;;10.89;100.00
9764;BME280;4921;43.214;27.936;2022-11-15T05:06:46;101734.22;;;10.99;100.00
9764;BME280;4921;43.214;27.936;2022-11-15T05:09:15;101737.31;;;11.05;100.00
9764;BME280;4921;43.214;27.936;2022-11-15T05:11:42;101723.06;;;10.95;100.00
9764;BME280;4921;43.214;27.936;2022-11-15T05:14:10;101734.69;;;11.05;100.00
9764;BME280;4921;43.214;27.936;2022-11-15T05:16:37;101729.59;;;11.02;100.00
9764;BME280;4921;43.214;27.936;2022-11-15T05:19:04;101733.66;;;11.08;100.00
9764;BME280;4921;43.214;27.936;2022-11-15T05:21:32;101742.13;;;10.99;100.00
9764;BME280;4921;43.214;27.936;2022-11-15T05:24:00;101731.31;;;11.03;100.00
9764;BME280;4921;43.214;27.936;2022-11-15T05:26:28;101737.31;;;11.05;100.00
9764;BME280;4921;43.214;27.936;2022-11-15T05:28:56;101740.88;;;11.04;100.00
9764;BME280;4921;43.214;27.936;2022-11-15T05:31:24;101735.16;;;10.98;100.00
9764;BME280;4921;43.214;27.936;2022-11-15T05:33:52;101742.88;;;11.01;100.00
9764;BME280;4921;43.214;27.936;2022-11-15T05:36:26;101744.47;;;11.03;100.00
9764;BME280;4921;43.214;27.936;2022-11-15T05:38:54;101735.34;;;11.09;100.00
9764;BME280;4921;43.214;27.936;2022-11-15T05:41:24;101744.81;;;11.11;100.00
9764;BME280;4921;43.214;27.936;2022-11-15T05:43:54;101746.41;;;11.14;100.00
9764;BME280;4921;43.214;27.936;2022-11-15T05:46:21;101747.91;;;11.18;100.00
9764;BME280;4921;43.214;27.936;2022-11-15T05:48:49;101743.69;;;11.15;100.00
9764;BME280;4921;43.214;27.936;2022-11-15T05:51:19;101744.72;;;11.13;100.00
9764;BME280;4921;43.214;27.936;2022-11-15T05:53:48;101745.38;;;11.16;100.00
9764;BME280;4921;43.214;27.936;2022-11-15T05:56:16;101745.97;;;11.07;100.00
9764;BME280;4921;43.214;27.936;2022-11-15T05:58:43;101740.75;;;11.20;100.00
9764;BME280;4921;43.214;27.936;2022-11-15T06:01:11;101745.56;;;11.27;100.00
9764;BME280;4921;43.214;27.936;2022-11-15T06:03:38;101748.19;;;11.27;100.00
9764;BME280;4921;43.214;27.936;2022-11-15T06:06:05;101751.97;;;11.23;100.00
9764;BME280;4921;43.214;27.936;2022-11-15T06:08:32;101750.88;;;11.26;100.00
9764;BME280;4921;43.214;27.936;2022-11-15T06:11:03;101741.66;;;11.33;100.00
9764;BME280;4921;43.214;27.936;2022-11-15T06:13:30;101750.13;;;11.38;100.00
9764;BME280;4921;43.214;27.936;2022-11-15T06:15:57;101751.19;;;11.21;100.00
9764;BME280;4921;43.214;27.936;2022-11-15T06:18:26;101743.09;;;11.24;100.00
9764;BME280;4921;43.214;27.936;2022-11-15T06:20:53;101745.25;;;11.32;100.00
9764;BME280;4921;43.214;27.936;2022-11-15T06:23:19;101742.28;;;11.36;100.00
9764;BME280;4921;43.214;27.936;2022-11-15T06:25:46;101736.41;;;11.33;100.00
9764;BME280;4921;43.214;27.936;2022-11-15T06:28:13;101736.53;;;11.44;100.00
9764;BME280;4921;43.214;27.936;2022-11-15T06:30:40;101737.47;;;11.43;100.00
9764;BME280;4921;43.214;27.936;2022-11-15T06:33:07;101748.16;;;11.54;100.00
9764;BME280;4921;43.214;27.936;2022-11-15T06:35:36;101743.09;;;11.51;100.00
9764;BME280;4921;43.214;27.936;2022-11-15T06:38:04;101741.75;;;11.58;100.00
9764;BME280;4921;43.214;27.936;2022-11-15T06:40:33;101742.41;;;11.62;100.00
9764;BME280;4921;43.214;27.936;2022-11-15T06:43:00;101746.28;;;11.56;100.00
9764;BME280;4921;43.214;27.936;2022-11-15T06:45:27;101739.78;;;11.62;100.00
9764;BME280;4921;43.214;27.936;2022-11-15T06:47:54;101746.28;;;11.56;100.00
9764;BME280;4921;43.214;27.936;2022-11-15T06:50:21;101736.47;;;11.58;100.00
9764;BME280;4921;43.214;27.936;2022-11-15T06:52:49;101733.66;;;11.61;100.00
9764;BME280;4921;43.214;27.936;2022-11-15T06:55:16;101734.66;;;11.73;100.00
9764;BME280;4921;43.214;27.936;2022-11-15T06:57:47;101741.41;;;11.77;100.00
9764;BME280;4921;43.214;27.936;2022-11-15T07:00:15;101737.09;;;11.76;100.00
9764;BME280;4921;43.214;27.936;2022-11-15T07:02:42;101749.31;;;11.77;100.00
9764;BME280;4921;43.214;27.936;2022-11-15T07:05:10;101746.16;;;11.84;100.00
9764;BME280;4921;43.214;27.936;2022-11-15T07:07:37;101747.66;;;11.88;100.00
9764;BME280;4921;43.214;27.936;2022-11-15T07:10:06;101743.34;;;11.87;100.00
9764;BME280;4921;43.214;27.936;2022-11-15T07:12:34;101747.88;;;11.85;100.00
9764;BME280;4921;43.214;27.936;2022-11-15T07:15:01;101747.31;;;11.80;100.00
9764;BME280;4921;43.214;27.936;2022-11-15T07:17:28;101738.69;;;11.91;100.00
9764;BME280;4921;43.214;27.936;2022-11-15T07:19:54;101725.00;;;11.98;100.00
9764;BME280;4921;43.214;27.936;2022-11-15T07:22:21;101731.88;;;12.01;100.00
9764;BME280;4921;43.214;27.936;2022-11-15T07:24:48;101729.75;;;12.06;100.00
9764;BME280;4921;43.214;27.936;2022-11-15T07:27:16;101730.59;;;12.06;100.00
9764;BME280;4921;43.214;27.936;2022-11-15T07:29:43;101722.25;;;12.00;100.00
9764;BME280;4921;43.214;27.936;2022-11-15T07:32:10;101722.16;;;12.01;100.00
9764;BME280;4921;43.214;27.936;2022-11-15T07:34:37;101717.97;;;11.99;100.00
9764;BME280;4921;43.214;27.936;2022-11-15T07:37:04;101728.28;;;12.02;100.00
9764;BME280;4921;43.214;27.936;2022-11-15T07:39:31;101725.13;;;12.09;100.00
9764;BME280;4921;43.214;27.936;2022-11-15T07:41:58;101730.41;;;12.22;100.00
9764;BME280;4921;43.214;27.936;2022-11-15T07:44:41;101727.66;;;12.23;100.00
9764;BME280;4921;43.214;27.936;2022-11-15T07:47:08;101729.97;;;12.28;100.00
9764;BME280;4921;43.214;27.936;2022-11-15T07:49:34;101724.09;;;12.24;100.00
9764;BME280;4921;43.214;27.936;2022-11-15T07:52:01;101723.66;;;12.31;100.00
9764;BME280;4921;43.214;27.936;2022-11-15T07:54:28;101724.50;;;12.31;100.00
9764;BME280;4921;43.214;27.936;2022-11-15T07:56:55;101719.31;;;12.30;100.00
9764;BME280;4921;43.214;27.936;2022-11-15T07:59:22;101721.34;;;12.26;100.00
9764;BME280;4921;43.214;27.936;2022-11-15T08:01:50;101724.09;;;12.24;100.00
9764;BME280;4921;43.214;27.936;2022-11-15T08:04:17;101729.13;;;12.27;100.00
9764;BME280;4921;43.214;27.936;2022-11-15T08:06:44;101726.06;;;12.21;100.00
9764;BME280;4921;43.214;27.936;2022-11-15T08:09:11;101720.16;;;12.17;100.00
9764;BME280;4921;43.214;27.936;2022-11-15T08:11:38;101734.41;;;12.27;100.00
9764;BME280;4921;43.214;27.936;2022-11-15T08:14:05;101732.50;;;12.30;100.00
9764;BME280;4921;43.214;27.936;2022-11-15T08:16:32;101726.81;;;12.23;100.00
9764;BME280;4921;43.214;27.936;2022-11-15T08:19:00;101723.97;;;12.26;100.00
9764;BME280;4921;43.214;27.936;2022-11-15T08:21:27;101730.59;;;12.19;100.00
9764;BME280;4921;43.214;27.936;2022-11-15T08:23:54;101730.53;;;12.20;100.00
9764;BME280;4921;43.214;27.936;2022-11-15T08:26:20;101720.59;;;12.24;100.00
9764;BME280;4921;43.214;27.936;2022-11-15T08:28:47;101719.97;;;12.20;100.00
9764;BME280;4921;43.214;27.936;2022-11-15T08:31:16;101718.69;;;12.26;100.00
9764;BME280;4921;43.214;27.936;2022-11-15T08:33:44;101713.72;;;12.21;100.00
9764;BME280;4921;43.214;27.936;2022-11-15T08:36:15;101711.22;;;12.20;100.00
9764;BME280;4921;43.214;27.936;2022-11-15T08:38:42;101702.66;;;12.16;100.00
9764;BME280;4921;43.214;27.936;2022-11-15T08:41:12;101714.28;;;12.27;100.00
9764;BME280;4921;43.214;27.936;2022-11-15T08:43:39;101710.66;;;12.27;100.00
9764;BME280;4921;43.214;27.936;2022-11-15T08:46:08;101701.59;;;12.32;100.00
9764;BME280;4921;43.214;27.936;2022-11-15T08:48:37;101700.97;;;12.28;100.00
9764;BME280;4921;43.214;27.936;2022-11-15T08:51:04;101696.84;;;12.24;100.00
9764;BME280;4921;43.214;27.936;2022-11-15T08:53:33;101704.66;;;12.25;100.00
9764;BME280;4921;43.214;27.936;2022-11-15T08:56:00;101693.91;;;12.29;100.00
9764;BME280;4921;43.214;27.936;2022-11-15T08:58:27;101687.34;;;12.34;100.00
9764;BME280;4921;43.214;27.936;2022-11-15T09:00:54;101684.28;;;12.40;100.00
9764;BME280;4921;43.214;27.936;2022-11-15T09:03:21;101680.41;;;12.33;100.00
9764;BME280;4921;43.214;27.936;2022-11-15T09:05:48;101682.81;;;12.36;100.00
9764;BME280;4921;43.214;27.936;2022-11-15T09:08:15;101674.13;;;12.47;100.00
9764;BME280;4921;43.214;27.936;2022-11-15T09:10:43;101663.28;;;12.39;100.00
9764;BME280;4921;43.214;27.936;2022-11-15T09:13:10;101669.81;;;12.46;100.00
9764;BME280;4921;43.214;27.936;2022-11-15T09:15:37;101671.50;;;12.47;100.00
9764;BME280;4921;43.214;27.936;2022-11-15T09:18:04;101660.41;;;12.54;100.00
9764;BME280;4921;43.214;27.936;2022-11-15T09:20:31;101656.06;;;12.53;100.00
9764;BME280;4921;43.214;27.936;2022-11-15T09:22:59;101655.88;;;12.56;100.00
9764;BME280;4921;43.214;27.936;2022-11-15T09:25:27;101655.44;;;12.62;100.00
9764;BME280;4921;43.214;27.936;2022-11-15T09:27:55;101660.38;;;12.67;100.00
9764;BME280;4921;43.214;27.936;2022-11-15T09:30:22;101658.25;;;12.72;100.00
9764;BME280;4921;43.214;27.936;2022-11-15T09:32:49;101653.72;;;12.74;100.00
9764;BME280;4921;43.214;27.936;2022-11-15T09:35:16;101645.47;;;12.78;100.00
9764;BME280;4921;43.214;27.936;2022-11-15T09:37:43;101640.59;;;12.85;100.00
9764;BME280;4921;43.214;27.936;2022-11-15T09:40:13;101629.50;;;12.80;100.00
9764;BME280;4921;43.214;27.936;2022-11-15T09:45:50;101634.97;;;12.89;100.00
9764;BME280;4921;43.214;27.936;2022-11-15T09:48:37;101633.88;;;12.92;100.00
9764;BME280;4921;43.214;27.936;2022-11-15T09:51:14;101629.97;;;12.97;100.00
9764;BME280;4921;43.214;27.936;2022-11-15T09:53:49;101637.66;;;13.00;100.00
9764;BME280;4921;43.214;27.936;2022-11-15T09:56:21;101630.88;;;13.09;100.00
9764;BME280;4921;43.214;27.936;2022-11-15T09:58:55;101628.75;;;13.14;100.00
9764;BME280;4921;43.214;27.936;2022-11-15T10:01:33;101625.03;;;13.17;100.00
9764;BME280;4921;43.214;27.936;2022-11-15T10:04:03;101620.63;;;13.17;100.00
9764;BME280;4921;43.214;27.936;2022-11-15T10:06:31;101620.88;;;13.25;100.00
9764;BME280;4921;43.214;27.936;2022-11-15T10:09:04;101616.09;;;13.30;100.00
9764;BME280;4921;43.214;27.936;2022-11-15T10:11:35;101611.41;;;13.34;100.00
9764;BME280;4921;43.214;27.936;2022-11-15T10:14:10;101612.88;;;13.38;100.00
9764;BME280;4921;43.214;27.936;2022-11-15T10:19:35;101612.31;;;13.45;100.00
9764;BME280;4921;43.214;27.936;2022-11-15T10:22:23;101598.97;;;13.47;100.00
9764;BME280;4921;43.214;27.936;2022-11-15T10:24:53;101593.09;;;13.54;100.00
9764;BME280;4921;43.214;27.936;2022-11-15T10:27:25;101593.94;;;13.55;100.00
9764;BME280;4921;43.214;27.936;2022-11-15T10:29:52;101588.16;;;13.61;100.00
9764;BME280;4921;43.214;27.936;2022-11-15T10:32:21;101583.50;;;13.64;100.00
9764;BME280;4921;43.214;27.936;2022-11-15T10:34:49;101579.06;;;13.65;100.00
9764;BME280;4921;43.214;27.936;2022-11-15T10:37:27;101566.59;;;13.67;100.00
9764;BME280;4921;43.214;27.936;2022-11-15T10:40:04;101566.44;;;13.68;100.00
9764;BME280;4921;43.214;27.936;2022-11-15T10:42:31;101564.53;;;13.70;100.00
9764;BME280;4921;43.214;27.936;2022-11-15T10:44:58;101569.47;;;13.75;100.00
9764;BME280;4921;43.214;27.936;2022-11-15T10:47:28;101556.75;;;13.80;100.00
9764;BME280;4921;43.214;27.936;2022-11-15T10:50:02;101562.13;;;13.78;100.00
9764;BME280;4921;43.214;27.936;2022-11-15T10:52:30;101562.75;;;13.82;100.00
9764;BME280;4921;43.214;27.936;2022-11-15T10:55:02;101551.91;;;13.85;100.00
9764;BME280;4921;43.214;27.936;2022-11-15T10:57:32;101544.47;;;13.90;100.00
9764;BME280;4921;43.214;27.936;2022-11-15T11:00:03;101539.91;;;13.92;100.00
9764;BME280;4921;43.214;27.936;2022-11-15T11:02:35;101543.03;;;13.97;100.00
9764;BME280;4921;43.214;27.936;2022-11-15T11:05:05;101538.19;;;14.02;100.00
9764;BME280;4921;43.214;27.936;2022-11-15T11:07:33;101536.63;;;14.00;100.00
9764;BME280;4921;43.214;27.936;2022-11-15T11:10:03;101530.16;;;14.04;100.00
9764;BME280;4921;43.214;27.936;2022-11-15T11:12:32;101523.75;;;14.06;100.00
9764;BME280;4921;43.214;27.936;2022-11-15T11:15:01;101526.06;;;14.11;100.00
9764;BME280;4921;43.214;27.936;2022-11-15T11:17:40;101512.72;;;14.12;100.00
9764;BME280;4921;43.214;27.936;2022-11-15T11:20:15;101521.81;;;14.19;100.00
9764;BME280;4921;43.214;27.936;2022-11-15T11:22:58;101511.72;;;14.24;100.00
9764;BME280;4921;43.214;27.936;2022-11-15T11:25:34;101506.81;;;14.20;100.00
9764;BME280;4921;43.214;27.936;2022-11-15T11:28:21;101508.22;;;14.24;100.00
9764;BME280;4921;43.214;27.936;2022-11-15T11:31:00;101505.22;;;14.28;100.00
9764;BME280;4921;43.214;27.936;2022-11-15T11:33:32;101494.63;;;14.28;100.00
9764;BME280;4921;43.214;27.936;2022-11-15T11:36:10;101488.44;;;14.29;100.00
9764;BME280;4921;43.214;27.936;2022-11-15T11:38:44;101483.72;;;14.33;100.00
9764;BME280;4921;43.214;27.936;2022-11-15T11:41:23;101482.50;;;14.37;100.00
9764;BME280;4921;43.214;27.936;2022-11-15T11:44:02;101486.94;;;14.36;100.00
9764;BME280;4921;43.214;27.936;2022-11-15T11:46:45;101471.34;;;14.33;100.00
9764;BME280;4921;43.214;27.936;2022-11-15T11:49:20;101482.34;;;14.38;100.00
9764;BME280;4921;43.214;27.936;2022-11-15T11:51:54;101476.97;;;14.40;100.00
9764;BME280;4921;43.214;27.936;2022-11-15T11:54:28;101471.19;;;14.35;100.00
9764;BME280;4921;43.214;27.936;2022-11-15T11:57:00;101476.50;;;14.35;100.00
9764;BME280;4921;43.214;27.936;2022-11-15T11:59:33;101462.53;;;14.33;100.00
9764;BME280;4921;43.214;27.936;2022-11-15T12:02:12;101456.50;;;14.42;100.00
9764;BME280;4921;43.214;27.936;2022-11-15T12:04:45;101459.00;;;14.43;100.00
9764;BME280;4921;43.214;27.936;2022-11-15T12:07:17;101456.94;;;14.47;100.00
9764;BME280;4921;43.214;27.936;2022-11-15T12:09:53;101449.59;;;14.50;100.00
9764;BME280;4921;43.214;27.936;2022-11-15T12:12:29;101447.69;;;14.52;100.00
9764;BME280;4921;43.214;27.936;2022-11-15T12:15:02;101443.66;;;14.58;100.00
9764;BME280;4921;43.214;27.936;2022-11-15T12:17:30;101441.63;;;14.62;100.00
9764;BME280;4921;43.214;27.936;2022-11-15T12:20:02;101435.25;;;14.64;100.00
9764;BME280;4921;43.214;27.936;2022-11-15T12:22:36;101441.25;;;14.66;100.00
9764;BME280;4921;43.214;27.936;2022-11-15T12:25:08;101438.31;;;14.69;100.00
9764;BME280;4921;43.214;27.936;2022-11-15T12:27:42;101439.31;;;14.68;100.00
9764;BME280;4921;43.214;27.936;2022-11-15T12:30:13;101431.94;;;14.72;100.00
9764;BME280;4921;43.214;27.936;2022-11-15T12:32:50;101423.75;;;14.75;100.00
9764;BME280;4921;43.214;27.936;2022-11-15T12:35:25;101420.25;;;14.74;100.00
9764;BME280;4921;43.214;27.936;2022-11-15T12:37:54;101418.44;;;14.75;100.00
9764;BME280;4921;43.214;27.936;2022-11-15T12:40:34;101410.22;;;14.78;100.00
9764;BME280;4921;43.214;27.936;2022-11-15T12:46:13;101409.13;;;14.80;100.00
9764;BME280;4921;43.214;27.936;2022-11-15T12:48:49;101407.47;;;14.79;100.00
9764;BME280;4921;43.214;27.936;2022-11-15T12:51:20;101401.44;;;14.77;100.00
9764;BME280;4921;43.214;27.936;2022-11-15T12:53:47;101407.47;;;14.79;100.00
9764;BME280;4921;43.214;27.936;2022-11-15T12:56:21;101401.34;;;14.79;100.00
9764;BME280;4921;43.214;27.936;2022-11-15T12:58:54;101394.16;;;14.49;100.00
9764;BME280;4921;43.214;27.936;2022-11-15T13:01:58;101393.75;;;14.53;100.00
9764;BME280;4921;43.214;27.936;2022-11-15T13:04:28;101392.41;;;14.59;100.00
9764;BME280;4921;43.214;27.936;2022-11-15T13:06:58;101394.50;;;14.56;100.00
9764;BME280;4921;43.214;27.936;2022-11-15T13:09:54;101395.97;;;14.48;100.00
9764;BME280;4921;43.214;27.936;2022-11-15T13:12:50;101390.53;;;14.18;100.00
9764;BME280;4921;43.214;27.936;2022-11-15T13:15:35;101388.72;;;14.19;100.00
9764;BME280;4921;43.214;27.936;2022-11-15T13:18:32;101381.09;;;13.94;100.00
9764;BME280;4921;43.214;27.936;2022-11-15T13:21:00;101378.72;;;13.91;100.00
9764;BME280;4921;43.214;27.936;2022-11-15T13:23:53;101372.56;;;14.01;100.00